Time;durP1;ratioP1;P1;durP2;ratioP2;P2;SDS_P1;SDS_P2;PMS_P1;PMS_P2;Temp;Humidity;BMP_temperature;BMP_pressure;BME280_temperature;BME280_humidity;BME280_pressure;Samples;Min_cycle;Max_cycle;Signal;HPM_P1;HPM_P2
2020/12/23 00:00:01;;;;;;;84.40;46.60;;;9.40;92.00;;;;;;5015677;28;20030;-74
2020/12/23 00:02:27;;;;;;;85.00;48.80;;;9.40;92.00;;;;;;5015619;28;20109;-75
2020/12/23 00:04:52;;;;;;;83.05;46.78;;;9.40;92.00;;;;;;5015717;28;20448;-74
2020/12/23 00:07:18;;;;;;;85.57;49.87;;;9.40;92.00;;;;;;5015531;28;20068;-73
2020/12/23 00:09:45;;;;;;;90.95;48.97;;;9.40;92.00;;;;;;5015612;28;20036;-73
2020/12/23 00:12:11;;;;;;;83.13;47.40;;;9.40;92.00;;;;;;5015712;28;20467;-75
2020/12/23 00:14:37;;;;;;;80.33;46.80;;;9.40;92.10;;;;;;5015375;28;20022;-74
2020/12/23 00:17:03;;;;;;;78.70;45.60;;;9.40;92.00;;;;;;5014818;28;20112;-75
2020/12/23 00:19:30;;;;;;;82.87;48.33;;;9.40;92.00;;;;;;5015713;28;20045;-73
2020/12/23 00:21:56;;;;;;;77.03;47.33;;;9.40;92.00;;;;;;5015596;28;20382;-73
2020/12/23 00:24:22;;;;;;;81.77;45.43;;;9.40;92.00;;;;;;5015425;28;20026;-74
2020/12/23 00:26:47;;;;;;;72.45;42.42;;;9.40;92.00;;;;;;5015136;28;20209;-75
2020/12/23 00:29:13;;;;;;;85.43;47.17;;;9.40;92.00;;;;;;5015096;28;20029;-75
2020/12/23 00:31:40;;;;;;;84.13;47.43;;;9.40;91.80;;;;;;5015101;28;20059;-74
2020/12/23 00:34:06;;;;;;;87.57;50.13;;;9.40;91.80;;;;;;5014908;28;20116;-74
2020/12/23 00:36:32;;;;;;;84.10;48.00;;;9.40;91.90;;;;;;5013347;28;20042;-74
2020/12/23 00:38:58;;;;;;;87.20;49.53;;;9.40;92.00;;;;;;5015040;28;20045;-75
2020/12/23 00:41:24;;;;;;;86.07;48.43;;;9.40;92.00;;;;;;5015138;28;20101;-75
2020/12/23 00:43:49;;;;;;;88.25;47.97;;;9.40;91.90;;;;;;5015012;28;20065;-75
2020/12/23 00:46:15;;;;;;;89.20;48.07;;;9.40;92.00;;;;;;5014875;28;20037;-75
2020/12/23 00:48:41;;;;;;;84.97;46.50;;;9.40;92.00;;;;;;5014781;28;20462;-75
2020/12/23 00:51:11;;;;;;;78.50;44.92;;;9.40;92.00;;;;;;5014688;28;20509;-76
2020/12/23 00:53:38;;;;;;;81.43;47.03;;;9.40;91.90;;;;;;5014664;28;20513;-75
2020/12/23 00:56:03;;;;;;;82.70;47.00;;;9.50;91.90;;;;;;5014784;28;20034;-72
2020/12/23 00:58:29;;;;;;;86.53;50.05;;;9.40;91.90;;;;;;5014629;28;20474;-72
2020/12/23 01:00:55;;;;;;;84.93;48.70;;;9.40;91.90;;;;;;5014809;28;20054;-75
2020/12/23 01:03:20;;;;;;;86.97;51.23;;;9.40;92.00;;;;;;5014338;28;20033;-74
2020/12/23 01:05:46;;;;;;;77.17;45.33;;;9.40;92.00;;;;;;5014536;28;20032;-74
2020/12/23 01:08:12;;;;;;;81.32;48.00;;;9.40;92.00;;;;;;5014647;28;20018;-72
2020/12/23 01:10:37;;;;;;;81.17;47.80;;;9.40;92.00;;;;;;5014520;28;20032;-72
2020/12/23 01:13:03;;;;;;;89.30;50.97;;;9.30;91.90;;;;;;5014407;28;20470;-75
2020/12/23 01:15:29;;;;;;;86.27;50.23;;;9.40;92.00;;;;;;5014373;28;20404;-74
2020/12/23 01:17:54;;;;;;;83.53;50.23;;;9.30;92.10;;;;;;5014309;28;20112;-73
2020/12/23 01:20:20;;;;;;;90.50;50.87;;;9.40;92.00;;;;;;5014392;28;20030;-73
2020/12/23 01:22:46;;;;;;;85.53;49.10;;;9.30;92.00;;;;;;5014348;28;20029;-72
2020/12/23 01:25:11;;;;;;;82.10;47.97;;;9.40;92.00;;;;;;5014273;28;20390;-72
2020/12/23 01:27:37;;;;;;;73.63;45.77;;;9.40;92.00;;;;;;5013800;28;20144;-72
2020/12/23 01:30:04;;;;;;;76.73;46.20;;;9.40;92.10;;;;;;5013696;28;20529;-75
2020/12/23 01:32:30;;;;;;;89.57;49.70;;;9.40;92.10;;;;;;5014149;28;20049;-75
2020/12/23 01:34:55;;;;;;;86.57;49.10;;;9.40;92.00;;;;;;5014084;28;20025;-75
2020/12/23 01:37:21;;;;;;;80.10;49.00;;;9.40;92.00;;;;;;5013150;28;20042;-76
2020/12/23 01:39:46;;;;;;;85.67;49.63;;;9.40;92.00;;;;;;5013087;28;20041;-72
2020/12/23 01:42:12;;;;;;;84.80;50.67;;;9.40;92.10;;;;;;5012994;28;20121;-75
2020/12/23 01:44:39;;;;;;;90.93;51.40;;;9.40;92.10;;;;;;5013204;28;20018;-75
2020/12/23 01:47:08;;;;;;;87.83;50.93;;;9.40;92.00;;;;;;5013835;28;20379;-75
2020/12/23 01:49:35;;;;;;;80.18;48.20;;;9.30;92.00;;;;;;5012778;28;20072;-75
2020/12/23 01:52:01;;;;;;;79.53;49.43;;;9.30;92.20;;;;;;5012964;28;20149;-75
2020/12/23 01:54:27;;;;;;;85.75;49.13;;;9.30;92.20;;;;;;5013836;28;20018;-74
2020/12/23 01:56:56;;;;;;;83.63;48.63;;;9.40;92.20;;;;;;5013734;28;20054;-75
2020/12/23 01:59:23;;;;;;;87.15;50.80;;;9.30;92.10;;;;;;5011027;28;20049;-75
2020/12/23 02:01:56;;;;;;;89.73;48.77;;;9.30;92.10;;;;;;5010805;28;20454;-75
2020/12/23 02:04:22;;;;;;;89.20;49.87;;;9.30;92.10;;;;;;5011514;28;20026;-74
2020/12/23 02:06:48;;;;;;;86.07;47.73;;;9.30;92.20;;;;;;5013318;28;20068;-75
2020/12/23 02:09:15;;;;;;;83.30;44.97;;;9.30;92.20;;;;;;5013521;28;20104;-75
2020/12/23 02:11:41;;;;;;;87.77;47.33;;;9.30;92.20;;;;;;5013581;28;20030;-75
2020/12/23 02:14:07;;;;;;;79.63;45.43;;;9.30;92.20;;;;;;5013182;28;20168;-75
2020/12/23 02:16:32;;;;;;;88.63;47.40;;;9.30;92.30;;;;;;5012924;28;20108;-74
2020/12/23 02:18:58;;;;;;;81.30;45.33;;;9.30;92.30;;;;;;5013021;28;20042;-73
2020/12/23 02:21:24;;;;;;;81.00;45.13;;;9.30;92.30;;;;;;5013159;28;20032;-75
2020/12/23 02:23:51;;;;;;;79.93;45.90;;;9.30;92.30;;;;;;5013462;28;20045;-74
2020/12/23 02:26:17;;;;;;;88.57;48.10;;;9.30;92.20;;;;;;5013276;28;20037;-74
2020/12/23 02:28:43;;;;;;;77.50;44.93;;;9.30;92.10;;;;;;5012926;28;20030;-74
2020/12/23 02:31:09;;;;;;;84.47;50.07;;;9.30;92.10;;;;;;5012924;28;20045;-73
2020/12/23 02:33:34;;;;;;;80.33;46.83;;;9.30;92.20;;;;;;5012937;28;20057;-73
2020/12/23 02:36:00;;;;;;;81.53;45.43;;;9.30;92.20;;;;;;5012804;28;20053;-74
2020/12/23 02:38:26;;;;;;;79.97;46.87;;;9.40;92.10;;;;;;5012925;28;20040;-74
2020/12/23 02:40:51;;;;;;;85.77;50.37;;;9.40;92.00;;;;;;5015882;28;20437;-74
2020/12/23 02:43:17;;;;;;;85.07;50.33;;;9.40;92.00;;;;;;5016777;28;20101;-74
2020/12/23 02:45:43;;;;;;;80.73;48.00;;;9.40;92.00;;;;;;5016870;28;20036;-74
2020/12/23 02:48:09;;;;;;;77.97;47.23;;;9.40;92.00;;;;;;5016979;28;20060;-74
2020/12/23 02:50:34;;;;;;;75.63;45.67;;;9.40;92.20;;;;;;5016764;28;20037;-74
2020/12/23 02:53:00;;;;;;;78.43;46.57;;;9.40;91.90;;;;;;5016610;28;20040;-74
2020/12/23 02:55:26;;;;;;;77.47;48.17;;;9.40;91.90;;;;;;5016738;28;20114;-74
2020/12/23 02:57:51;;;;;;;76.43;47.73;;;9.30;91.90;;;;;;5016539;28;20061;-74
2020/12/23 03:00:17;;;;;;;73.23;45.30;;;9.30;91.90;;;;;;5016548;28;20030;-74
2020/12/23 03:02:43;;;;;;;70.72;43.67;;;9.30;92.00;;;;;;5016458;28;20033;-74
2020/12/23 03:05:08;;;;;;;74.73;45.97;;;9.30;92.00;;;;;;5016413;28;20029;-74
2020/12/23 03:07:34;;;;;;;77.37;47.07;;;9.30;92.00;;;;;;5016699;28;20079;-73
2020/12/23 03:10:01;;;;;;;72.00;45.70;;;9.30;91.90;;;;;;5016608;28;20034;-74
2020/12/23 03:12:27;;;;;;;74.17;47.57;;;9.30;92.00;;;;;;5016657;28;20497;-74
2020/12/23 03:14:53;;;;;;;86.90;50.27;;;9.30;92.00;;;;;;5016413;28;20030;-75
2020/12/23 03:17:18;;;;;;;78.30;48.07;;;9.30;92.00;;;;;;5016227;28;20030;-74
2020/12/23 03:19:44;;;;;;;82.23;49.23;;;9.30;92.00;;;;;;5016380;28;20045;-73
2020/12/23 03:22:10;;;;;;;80.27;48.60;;;9.30;92.10;;;;;;5016470;28;20379;-75
2020/12/23 03:24:36;;;;;;;92.67;53.03;;;9.30;92.10;;;;;;5016541;28;20084;-75
2020/12/23 03:27:01;;;;;;;80.70;47.87;;;9.30;92.40;;;;;;5016340;28;20021;-75
2020/12/23 03:29:27;;;;;;;72.40;44.00;;;9.30;92.10;;;;;;5016009;28;20018;-75
2020/12/23 03:31:53;;;;;;;76.03;46.33;;;9.30;92.10;;;;;;5016334;28;20545;-75
2020/12/23 03:34:18;;;;;;;74.57;46.53;;;9.30;92.10;;;;;;5016351;28;20034;-75
2020/12/23 03:36:44;;;;;;;81.67;48.07;;;9.40;92.00;;;;;;5015826;28;20081;-75
2020/12/23 03:39:09;;;;;;;78.10;47.10;;;9.30;92.00;;;;;;5016036;28;20030;-74
2020/12/23 03:41:35;;;;;;;84.13;46.90;;;9.30;92.00;;;;;;5016234;28;20501;-74
2020/12/23 03:44:02;;;;;;;88.67;52.00;;;9.30;92.00;;;;;;5016060;28;20034;-75
2020/12/23 03:46:27;;;;;;;81.07;46.87;;;9.30;92.00;;;;;;5016127;28;20033;-75
2020/12/23 03:48:53;;;;;;;86.07;48.13;;;9.30;92.10;;;;;;5015874;28;20022;-74
2020/12/23 03:51:19;;;;;;;87.63;50.20;;;9.30;92.10;;;;;;5015003;28;20030;-75
2020/12/23 03:53:44;;;;;;;83.00;47.87;;;9.30;92.10;;;;;;5015908;28;20065;-74
2020/12/23 03:56:10;;;;;;;89.20;47.30;;;9.30;92.10;;;;;;5015803;28;20022;-76
2020/12/23 03:58:36;;;;;;;82.20;46.17;;;9.30;92.00;;;;;;5015698;28;20393;-75
2020/12/23 04:01:02;;;;;;;79.60;47.23;;;9.30;92.00;;;;;;5015745;28;20474;-76
2020/12/23 04:03:27;;;;;;;82.97;48.43;;;9.30;92.00;;;;;;5015814;28;20031;-75
2020/12/23 04:05:54;;;;;;;89.93;48.73;;;9.30;92.10;;;;;;5015782;28;20026;-75
2020/12/23 04:08:19;;;;;;;82.20;44.83;;;9.30;92.00;;;;;;5015579;28;20030;-75
2020/12/23 04:10:45;;;;;;;81.43;47.17;;;9.30;92.10;;;;;;5014133;28;20029;-75
2020/12/23 04:13:11;;;;;;;81.40;46.03;;;9.30;92.00;;;;;;5015320;28;20026;-75
2020/12/23 04:15:36;;;;;;;82.90;46.93;;;9.30;91.90;;;;;;5014275;28;20029;-75
2020/12/23 04:18:02;;;;;;;77.57;45.67;;;9.30;91.90;;;;;;5015434;28;20394;-75
2020/12/23 04:20:28;;;;;;;80.32;45.05;;;9.30;92.00;;;;;;5015403;28;20061;-75
2020/12/23 04:22:53;;;;;;;81.90;47.27;;;9.30;92.00;;;;;;5015797;28;20030;-75
2020/12/23 04:25:19;;;;;;;81.83;47.33;;;9.30;92.00;;;;;;5015408;28;20034;-75
2020/12/23 04:27:45;;;;;;;87.60;49.07;;;9.30;92.00;;;;;;5015088;28;20022;-75
2020/12/23 04:30:11;;;;;;;88.97;48.33;;;9.20;92.00;;;;;;5015528;28;20493;-75
2020/12/23 04:32:36;;;;;;;80.80;46.30;;;9.30;92.00;;;;;;5014262;28;20058;-76
2020/12/23 04:35:04;;;;;;;84.80;47.60;;;9.30;92.10;;;;;;5013717;28;20506;-76
2020/12/23 04:37:31;;;;;;;86.10;47.60;;;9.30;92.10;;;;;;5014831;28;20407;-75
2020/12/23 04:39:57;;;;;;;85.57;47.13;;;9.30;92.10;;;;;;5014813;28;20057;-75
2020/12/23 04:42:23;;;;;;;77.10;45.37;;;9.30;92.10;;;;;;5015086;28;20021;-75
2020/12/23 04:44:50;;;;;;;78.67;45.50;;;9.20;92.00;;;;;;5015185;28;20104;-75
2020/12/23 04:47:19;;;;;;;85.63;49.90;;;9.30;92.00;;;;;;5014739;28;20033;-75
2020/12/23 04:49:45;;;;;;;85.72;47.83;;;9.30;92.00;;;;;;5014578;28;20482;-76
2020/12/23 04:52:12;;;;;;;75.33;45.90;;;9.20;92.00;;;;;;5013609;28;20053;-75
2020/12/23 04:54:38;;;;;;;83.47;48.73;;;9.20;92.10;;;;;;5014676;28;20032;-76
2020/12/23 04:57:04;;;;;;;86.00;48.50;;;9.20;92.00;;;;;;5014651;28;20454;-75
2020/12/23 04:59:30;;;;;;;83.40;47.83;;;9.20;92.00;;;;;;5013436;28;20057;-75
2020/12/23 05:02:00;;;;;;;79.67;45.53;;;9.20;92.10;;;;;;5014566;28;20026;-75
2020/12/23 05:04:26;;;;;;;84.90;47.13;;;9.20;92.10;;;;;;5014370;28;20053;-75
2020/12/23 05:07:06;;;;;;;81.93;45.60;;;9.20;92.00;;;;;;5014241;28;20033;-76
2020/12/23 05:09:32;;;;;;;80.60;45.33;;;9.20;92.00;;;;;;5014556;28;20113;-75
2020/12/23 05:11:59;;;;;;;79.93;45.53;;;9.20;92.10;;;;;;5014671;28;20097;-76
2020/12/23 05:14:26;;;;;;;89.23;47.00;;;9.20;92.00;;;;;;5014171;28;20038;-75
2020/12/23 05:16:52;;;;;;;83.13;48.35;;;9.20;92.00;;;;;;5013971;28;20474;-75
2020/12/23 05:19:19;;;;;;;74.20;44.10;;;9.20;92.00;;;;;;5014306;28;20038;-75
2020/12/23 05:21:46;;;;;;;81.93;47.10;;;9.20;92.00;;;;;;5014346;28;20087;-75
2020/12/23 05:24:12;;;;;;;79.63;45.50;;;9.20;92.10;;;;;;5014650;28;20045;-75
2020/12/23 05:26:43;;;;;;;90.03;47.47;;;9.20;92.10;;;;;;5014400;28;20093;-75
2020/12/23 05:29:10;;;;;;;88.73;47.33;;;9.20;92.10;;;;;;5014158;28;20026;-75
2020/12/23 05:31:36;;;;;;;88.40;48.50;;;9.20;92.10;;;;;;5013925;28;20479;-74
2020/12/23 05:34:04;;;;;;;87.57;46.97;;;9.20;92.10;;;;;;5014413;28;20029;-74
2020/12/23 05:36:32;;;;;;;79.70;47.60;;;9.20;92.10;;;;;;5013480;28;20050;-74
2020/12/23 05:38:59;;;;;;;77.33;44.83;;;9.20;92.10;;;;;;5013117;28;20038;-74
2020/12/23 05:41:26;;;;;;;81.97;46.27;;;9.20;92.10;;;;;;5013046;28;20022;-75
2020/12/23 05:43:52;;;;;;;86.37;46.27;;;9.20;92.10;;;;;;5012907;28;20034;-76
2020/12/23 05:46:18;;;;;;;87.07;48.87;;;9.20;92.00;;;;;;5013611;28;20459;-76
2020/12/23 05:48:43;;;;;;;90.35;48.05;;;9.20;92.10;;;;;;5013773;28;20080;-75
2020/12/23 05:51:10;;;;;;;77.30;45.57;;;9.20;92.10;;;;;;5013790;28;20057;-75
2020/12/23 05:53:38;;;;;;;80.67;44.70;;;9.20;92.10;;;;;;5012823;28;20030;-74
2020/12/23 05:56:06;;;;;;;98.37;48.67;;;9.20;92.20;;;;;;5012765;28;20494;-75
2020/12/23 05:58:33;;;;;;;98.07;48.25;;;9.20;92.10;;;;;;5012775;28;20414;-74
2020/12/23 06:01:01;;;;;;;80.27;43.77;;;9.20;92.10;;;;;;5013504;28;20084;-75
2020/12/23 06:03:55;;;;;;;85.57;46.97;;;9.20;92.10;;;;;;5013456;28;20034;-75
2020/12/23 06:06:25;;;;;;;80.57;45.33;;;9.20;92.10;;;;;;5013435;28;20109;-75
2020/12/23 06:08:59;;;;;;;82.13;45.20;;;9.20;92.10;;;;;;5012792;28;20030;-75
2020/12/23 06:11:29;;;;;;;73.17;41.37;;;9.20;92.00;;;;;;5013423;28;20029;-75
2020/12/23 06:14:07;;;;;;;81.87;42.73;;;9.20;92.00;;;;;;5013023;28;20026;-75
2020/12/23 06:16:38;;;;;;;91.70;45.67;;;9.20;92.00;;;;;;5013253;28;20462;-74
2020/12/23 06:19:06;;;;;;;76.57;41.40;;;9.20;92.10;;;;;;5013484;28;20080;-75
2020/12/23 06:21:32;;;;;;;76.23;42.83;;;9.20;92.10;;;;;;5013539;28;20052;-74
2020/12/23 06:24:04;;;;;;;78.38;41.83;;;9.20;92.10;;;;;;5013528;28;20060;-74
2020/12/23 06:26:32;;;;;;;83.67;43.00;;;9.20;92.10;;;;;;5012719;28;20041;-74
2020/12/23 06:28:59;;;;;;;67.40;39.50;;;9.20;92.20;;;;;;5012095;28;20505;-74
2020/12/23 06:31:28;;;;;;;73.03;40.73;;;9.20;92.10;;;;;;5014323;28;20038;-74
2020/12/23 06:33:55;;;;;;;75.43;39.87;;;9.20;92.00;;;;;;5012139;28;20022;-74
2020/12/23 06:36:28;;;;;;;76.13;43.40;;;9.20;91.90;;;;;;5013178;28;20053;-74
2020/12/23 06:39:34;;;;;;;76.37;42.93;;;9.30;91.90;;;;;;5013208;28;20491;-74
2020/12/23 06:42:00;;;;;;;71.67;41.03;;;9.20;91.90;;;;;;5009314;28;20081;-74
2020/12/23 06:44:45;;;;;;;74.40;41.83;;;9.20;91.90;;;;;;5011936;28;20038;-74
2020/12/23 06:47:20;;;;;;;78.63;43.80;;;9.20;92.00;;;;;;5012760;28;20102;-74
2020/12/23 06:49:47;;;;;;;78.93;45.27;;;9.20;92.00;;;;;;5012278;28;20463;-74
2020/12/23 06:52:22;;;;;;;85.27;45.77;;;9.10;92.00;;;;;;5012241;28;20445;-75
2020/12/23 06:55:13;;;;;;;81.23;44.77;;;9.10;92.00;;;;;;5012957;28;20030;-73
2020/12/23 06:57:38;;;;;;;90.93;49.73;;;9.10;92.10;;;;;;5012752;28;20030;-74
2020/12/23 07:00:29;;;;;;;85.47;50.03;;;9.00;92.10;;;;;;5012788;28;20042;-74
2020/12/23 07:02:59;;;;;;;85.43;47.97;;;9.00;92.20;;;;;;5012835;28;20406;-74
2020/12/23 07:05:25;;;;;;;82.60;47.23;;;9.00;92.30;;;;;;5012675;28;20045;-74
2020/12/23 07:07:52;;;;;;;93.97;48.63;;;9.00;92.30;;;;;;5011973;28;20022;-74
2020/12/23 07:10:25;;;;;;;84.53;46.20;;;9.00;92.30;;;;;;5010979;28;20022;-74
2020/12/23 07:12:56;;;;;;;84.47;47.43;;;9.00;92.30;;;;;;5010069;28;20117;-72
2020/12/23 07:15:27;;;;;;;78.17;44.33;;;9.00;92.30;;;;;;5010039;28;20057;-74
2020/12/23 07:18:01;;;;;;;84.33;44.97;;;9.00;92.30;;;;;;5010246;28;20037;-75
2020/12/23 07:20:29;;;;;;;91.93;46.70;;;9.10;92.30;;;;;;5012643;28;20068;-76
2020/12/23 07:22:54;;;;;;;82.20;43.43;;;9.10;92.30;;;;;;5012957;28;20492;-76
2020/12/23 07:25:27;;;;;;;89.30;47.33;;;9.10;92.30;;;;;;5012737;28;20113;-72
2020/12/23 07:27:57;;;;;;;83.90;48.55;;;9.10;92.30;;;;;;5015154;28;20053;-71
2020/12/23 07:30:24;;;;;;;86.00;49.53;;;9.10;92.20;;;;;;5016403;28;20018;-70
2020/12/23 07:33:06;;;;;;;82.37;46.33;;;9.10;92.20;;;;;;5016302;28;20080;-72
2020/12/23 07:35:32;;;;;;;93.00;48.20;;;9.10;92.10;;;;;;5015825;28;20018;-71
2020/12/23 07:37:59;;;;;;;92.20;47.53;;;9.10;92.10;;;;;;5016322;28;20048;-72
2020/12/23 07:40:27;;;;;;;89.27;48.63;;;9.10;92.20;;;;;;5016293;28;20064;-72
2020/12/23 07:42:53;;;;;;;92.27;48.67;;;9.10;92.20;;;;;;5015832;28;20113;-73
2020/12/23 07:45:19;;;;;;;90.57;47.33;;;9.10;92.30;;;;;;5016159;28;20048;-71
2020/12/23 07:47:56;;;;;;;99.27;49.27;;;9.10;92.30;;;;;;5013407;28;20030;-73
2020/12/23 07:50:23;;;;;;;112.97;55.63;;;9.20;92.40;;;;;;5013398;28;20052;-72
2020/12/23 07:52:49;;;;;;;98.03;51.10;;;9.20;92.30;;;;;;5015351;28;20540;-72
2020/12/23 07:55:16;;;;;;;95.67;50.57;;;9.20;92.30;;;;;;5015991;28;20029;-72
2020/12/23 07:57:42;;;;;;;86.90;46.43;;;9.20;92.30;;;;;;5015986;28;20029;-72
2020/12/23 08:00:10;;;;;;;79.43;44.07;;;9.20;92.30;;;;;;5015902;28;20034;-72
2020/12/23 08:02:37;;;;;;;82.10;43.50;;;9.30;92.30;;;;;;5015995;28;20153;-72
2020/12/23 08:05:07;;;;;;;78.78;43.88;;;9.30;92.20;;;;;;5015551;28;20029;-72
2020/12/23 08:07:38;;;;;;;88.27;47.40;;;9.30;92.10;;;;;;5015968;28;20048;-72
2020/12/23 08:10:08;;;;;;;86.83;45.77;;;9.30;92.00;;;;;;5015893;28;20022;-72
2020/12/23 08:12:35;;;;;;;90.37;47.60;;;9.30;92.00;;;;;;5015775;28;20022;-71
2020/12/23 08:15:01;;;;;;;95.43;47.77;;;9.30;92.00;;;;;;5015735;28;20108;-71
2020/12/23 08:17:26;;;;;;;97.10;49.75;;;9.30;92.00;;;;;;5015497;28;20458;-71
2020/12/23 08:20:05;;;;;;;88.50;49.47;;;9.30;92.00;;;;;;5015465;28;20096;-72
2020/12/23 08:22:33;;;;;;;88.13;46.37;;;9.30;92.00;;;;;;5015530;28;20037;-72
2020/12/23 08:25:10;;;;;;;93.70;48.60;;;9.30;92.00;;;;;;5015409;28;20385;-72
2020/12/23 08:27:37;;;;;;;104.93;48.97;;;9.40;92.00;;;;;;5014087;28;20386;-72
2020/12/23 08:30:09;;;;;;;97.07;49.23;;;9.40;92.00;;;;;;5015443;28;20032;-72
2020/12/23 08:32:38;;;;;;;104.93;50.30;;;9.40;92.00;;;;;;5015379;28;20088;-71
2020/12/23 08:35:05;;;;;;;100.80;50.77;;;9.40;92.00;;;;;;5015278;28;20068;-71
2020/12/23 08:37:35;;;;;;;94.97;49.08;;;9.40;92.00;;;;;;5014643;28;20046;-71
2020/12/23 08:40:01;;;;;;;79.07;46.77;;;9.40;92.00;;;;;;5015078;28;20042;-71
2020/12/23 08:42:27;;;;;;;87.40;47.07;;;9.40;91.90;;;;;;5015228;28;20028;-71
2020/12/23 08:44:55;;;;;;;96.27;48.37;;;9.40;91.90;;;;;;5015157;28;20025;-72
2020/12/23 08:47:24;;;;;;;92.73;48.77;;;9.40;91.90;;;;;;5014994;28;20022;-71
2020/12/23 08:49:52;;;;;;;99.13;47.70;;;9.50;92.00;;;;;;5015114;28;20029;-71
2020/12/23 08:52:18;;;;;;;98.97;49.37;;;9.50;92.00;;;;;;5014823;28;20045;-71
2020/12/23 08:54:44;;;;;;;94.22;49.40;;;9.40;92.00;;;;;;5015111;28;20026;-71
2020/12/23 08:57:11;;;;;;;98.90;50.93;;;9.50;92.10;;;;;;5014740;28;20493;-72
2020/12/23 08:59:41;;;;;;;100.77;51.30;;;9.50;92.10;;;;;;5014715;28;20037;-71
2020/12/23 09:02:13;;;;;;;110.37;51.70;;;9.50;92.10;;;;;;5014828;28;20018;-72
2020/12/23 09:04:39;;;;;;;105.83;51.37;;;9.60;92.00;;;;;;5014643;28;20141;-72
2020/12/23 09:07:05;;;;;;;109.32;53.78;;;9.60;91.90;;;;;;5014592;28;20535;-73
2020/12/23 09:09:32;;;;;;;104.27;51.20;;;9.60;91.80;;;;;;5014114;28;20114;-72
2020/12/23 09:11:58;;;;;;;105.53;52.10;;;9.60;92.00;;;;;;5014221;28;20159;-72
2020/12/23 09:14:26;;;;;;;109.17;53.90;;;9.60;91.70;;;;;;5013030;28;20033;-72
2020/12/23 09:17:21;;;;;;;111.00;53.40;;;9.60;91.60;;;;;;5014030;28;20022;-72
2020/12/23 09:19:51;;;;;;;108.43;52.13;;;9.60;91.50;;;;;;5014237;28;20026;-75
2020/12/23 09:22:37;;;;;;;120.80;54.57;;;9.60;91.50;;;;;;5014366;28;20046;-72
2020/12/23 09:25:15;;;;;;;109.57;52.10;;;9.70;91.60;;;;;;5014378;28;20101;-72
2020/12/23 09:27:41;;;;;;;110.53;52.53;;;9.70;91.50;;;;;;5012521;28;20026;-72
2020/12/23 09:30:08;;;;;;;110.70;51.30;;;9.70;91.40;;;;;;5013246;28;20080;-73
2020/12/23 09:32:34;;;;;;;105.37;50.40;;;9.70;91.40;;;;;;5029744;28;20496;-73
2020/12/23 09:35:16;;;;;;;107.85;51.22;;;9.70;91.40;;;;;;5033172;28;20383;-72
2020/12/23 09:37:47;;;;;;;102.70;51.13;;;9.80;91.40;;;;;;5033127;28;20497;-66
2020/12/23 09:40:17;;;;;;;113.30;52.33;;;9.80;91.30;;;;;;5026777;28;20064;-66
2020/12/23 09:42:42;;;;;;;112.35;51.78;;;9.70;91.20;;;;;;5033548;28;20029;-68
2020/12/23 09:45:09;;;;;;;170.05;61.53;;;9.80;91.10;;;;;;5032167;28;20088;-69
2020/12/23 09:47:41;;;;;;;127.63;55.20;;;9.70;91.80;;;;;;5030036;28;20041;-67
2020/12/23 09:50:07;;;;;;;115.65;55.25;;;9.70;92.10;;;;;;5030018;28;20064;-68
2020/12/23 09:52:32;;;;;;;119.23;56.57;;;9.70;92.00;;;;;;5031964;28;20049;-68
2020/12/23 09:54:58;;;;;;;141.40;57.13;;;9.70;92.00;;;;;;5033138;28;20032;-68
2020/12/23 09:57:24;;;;;;;121.97;53.55;;;9.70;91.90;;;;;;5033273;28;20029;-68
2020/12/23 09:59:49;;;;;;;122.20;55.10;;;9.80;92.00;;;;;;5033039;28;20045;-69
2020/12/23 10:02:15;;;;;;;121.60;54.20;;;9.80;92.00;;;;;;5033061;28;20022;-69
2020/12/23 10:04:40;;;;;;;110.22;52.83;;;9.80;92.10;;;;;;5032935;28;20431;-68
2020/12/23 10:07:09;;;;;;;102.30;50.20;;;9.80;92.00;;;;;;5033034;28;20477;-70
2020/12/23 10:09:35;;;;;;;105.10;49.95;;;9.80;91.80;;;;;;5032795;28;20040;-69
2020/12/23 10:12:00;;;;;;;106.55;52.53;;;9.90;91.60;;;;;;5032982;28;20021;-71
2020/12/23 10:14:26;;;;;;;627.63;78.13;;;9.90;91.60;;;;;;5033288;28;20025;-69
2020/12/23 10:16:52;;;;;;;112.30;51.70;;;9.90;91.60;;;;;;5032607;28;20023;-69
2020/12/23 10:19:17;;;;;;;112.80;54.88;;;9.90;91.50;;;;;;5032873;28;20034;-69
2020/12/23 10:21:43;;;;;;;124.72;57.60;;;9.90;91.50;;;;;;5032857;28;20025;-71
2020/12/23 10:24:08;;;;;;;115.43;55.57;;;9.90;91.60;;;;;;5032748;28;20032;-69
2020/12/23 10:26:34;;;;;;;110.57;53.57;;;9.90;91.50;;;;;;5032851;28;20026;-69
2020/12/23 10:29:00;;;;;;;110.57;52.92;;;9.90;91.40;;;;;;5033054;28;20473;-69
2020/12/23 10:31:25;;;;;;;327.83;72.05;;;9.90;91.40;;;;;;5032681;28;20450;-70
2020/12/23 10:33:51;;;;;;;106.43;53.60;;;9.90;92.60;;;;;;5033118;28;20493;-70
2020/12/23 10:36:17;;;;;;;111.20;54.73;;;9.90;92.20;;;;;;5032800;28;20041;-72
2020/12/23 10:38:43;;;;;;;117.22;55.92;;;9.90;92.00;;;;;;5032407;28;20026;-70
2020/12/23 10:41:10;;;;;;;108.23;56.10;;;9.90;91.90;;;;;;5032854;28;20029;-69
2020/12/23 10:43:35;;;;;;;109.63;53.35;;;9.90;91.80;;;;;;5032783;28;20071;-70
2020/12/23 10:46:01;;;;;;;118.18;54.85;;;9.90;91.80;;;;;;5032474;28;20029;-71
2020/12/23 10:48:27;;;;;;;109.63;54.45;;;9.90;91.80;;;;;;5032541;28;20029;-71
2020/12/23 10:50:53;;;;;;;113.55;55.75;;;9.90;91.70;;;;;;5032709;28;20022;-70
2020/12/23 10:53:18;;;;;;;109.63;54.22;;;9.90;91.80;;;;;;5034081;28;20034;-71
2020/12/23 10:55:44;;;;;;;120.38;58.13;;;9.90;91.80;;;;;;5032895;28;20105;-72
2020/12/23 10:58:10;;;;;;;114.40;54.90;;;9.90;91.70;;;;;;5032580;28;20113;-71
2020/12/23 11:00:35;;;;;;;114.93;55.50;;;9.90;91.60;;;;;;5030592;28;20049;-71
2020/12/23 11:03:01;;;;;;;112.13;54.33;;;10.00;91.50;;;;;;5033851;28;20048;-69
2020/12/23 11:05:27;;;;;;;114.38;55.78;;;10.00;91.50;;;;;;5036380;28;20029;-71
2020/12/23 11:07:53;;;;;;;118.18;56.85;;;10.00;91.40;;;;;;5036370;28;20025;-72
2020/12/23 11:10:20;;;;;;;112.50;55.63;;;10.00;91.40;;;;;;5036634;28;20029;-68
2020/12/23 11:12:46;;;;;;;106.97;54.33;;;10.00;91.30;;;;;;5036444;28;20033;-68
2020/12/23 11:15:12;;;;;;;111.43;55.83;;;10.00;91.20;;;;;;5036202;28;20453;-69
2020/12/23 11:17:38;;;;;;;106.53;52.33;;;10.00;91.20;;;;;;5036512;28;20056;-70
2020/12/23 11:20:04;;;;;;;107.82;54.65;;;10.10;91.10;;;;;;5036386;28;20151;-71
2020/12/23 11:22:30;;;;;;;109.88;53.88;;;10.10;91.00;;;;;;5036422;28;20897;-70
2020/12/23 11:24:55;;;;;;;102.75;52.05;;;10.10;91.00;;;;;;5036382;28;20030;-71
2020/12/23 11:27:21;;;;;;;115.38;55.75;;;10.00;91.00;;;;;;5036050;28;20025;-70
2020/12/23 11:29:47;;;;;;;114.60;54.70;;;10.10;91.00;;;;;;5035967;28;20032;-69
2020/12/23 11:32:13;;;;;;;111.82;54.78;;;10.10;90.90;;;;;;5036210;28;20470;-70
2020/12/23 11:34:39;;;;;;;109.68;51.90;;;10.10;90.90;;;;;;5036034;28;20545;-69
2020/12/23 11:37:06;;;;;;;108.43;55.53;;;10.10;90.90;;;;;;5035985;28;20132;-70
2020/12/23 11:39:32;;;;;;;107.05;54.13;;;10.10;90.90;;;;;;5034533;28;20388;-70
2020/12/23 11:42:01;;;;;;;119.45;58.05;;;10.10;90.90;;;;;;5036002;28;20389;-70
2020/12/23 11:44:27;;;;;;;116.03;58.65;;;10.00;91.00;;;;;;5032940;28;20509;-71
2020/12/23 11:46:54;;;;;;;117.97;56.38;;;10.10;91.20;;;;;;5024505;28;20046;-70
2020/12/23 11:49:20;;;;;;;122.97;56.83;;;10.10;91.10;;;;;;5015738;28;20025;-70
2020/12/23 11:51:52;;;;;;;113.18;55.92;;;10.00;91.10;;;;;;5015793;28;20029;-70
2020/12/23 11:54:18;;;;;;;117.25;54.92;;;10.00;91.10;;;;;;5016003;28;20029;-70
2020/12/23 11:56:46;;;;;;;115.30;56.15;;;10.00;91.20;;;;;;5016004;28;20037;-70
2020/12/23 11:59:13;;;;;;;110.03;53.30;;;10.00;91.20;;;;;;5015669;28;20428;-69
2020/12/23 12:01:38;;;;;;;110.28;55.58;;;10.00;91.20;;;;;;5015908;28;20022;-70
2020/12/23 12:04:04;;;;;;;124.03;56.63;;;10.00;91.30;;;;;;5015746;28;20161;-69
2020/12/23 12:06:30;;;;;;;122.20;55.50;;;10.00;91.30;;;;;;5015847;28;20084;-69
2020/12/23 12:08:55;;;;;;;114.28;54.00;;;10.00;91.30;;;;;;5015750;28;20030;-69
2020/12/23 12:11:21;;;;;;;118.43;55.53;;;10.00;91.30;;;;;;5015572;28;20115;-70
2020/12/23 12:13:47;;;;;;;116.97;55.45;;;10.00;91.30;;;;;;5014970;28;20076;-70
2020/12/23 12:16:13;;;;;;;106.63;53.33;;;10.00;91.20;;;;;;5015634;28;20056;-70
2020/12/23 12:18:40;;;;;;;106.90;52.28;;;10.00;91.20;;;;;;5015586;28;20061;-70
2020/12/23 12:21:06;;;;;;;113.78;55.63;;;10.00;91.10;;;;;;5014705;28;20033;-70
2020/12/23 12:23:31;;;;;;;111.47;53.92;;;10.00;91.20;;;;;;5015113;28;20060;-70
2020/12/23 12:25:57;;;;;;;112.45;53.97;;;10.00;91.10;;;;;;5015476;28;20030;-70
2020/12/23 12:28:23;;;;;;;113.03;54.53;;;10.00;91.00;;;;;;5015413;28;20105;-70
2020/12/23 12:30:48;;;;;;;117.80;56.38;;;10.00;91.00;;;;;;5015239;28;20033;-70
2020/12/23 12:33:15;;;;;;;115.93;56.53;;;10.00;91.10;;;;;;5015309;28;20036;-70